Time;durP1;ratioP1;P1;durP2;ratioP2;P2;SDS_P1;SDS_P2;PMS_P1;PMS_P2;Temp;Humidity;BMP_temperature;BMP_pressure;BME280_temperature;BME280_humidity;BME280_pressure;Samples;Min_cycle;Max_cycle;Signal;HPM_P1;HPM_P2
2021/09/08 00:02:17;;;;;;;28.10;18.00;;;;;;;13.25;67.38;99733.05;112844;1187;63079;-85
2021/09/08 00:05:54;;;;;;;26.90;16.50;;;;;;;13.24;67.44;99735.23;112923;1187;62624;-84
2021/09/08 00:08:40;;;;;;;;;;;;;;;;;;;;;
2021/09/08 00:12:08;;;;;;;33.20;17.60;;;;;;;13.28;67.35;99742.30;112878;1187;67145;-84
2021/09/08 00:15:32;;;;;;;;;;;;;;;;;;;;;
2021/09/08 00:18:36;;;;;;;32.70;19.20;;;;;;;13.20;67.41;99735.52;113223;1184;63248;-85
2021/09/08 00:21:41;;;;;;;26.70;17.40;;;;;;;13.20;67.60;99731.95;113315;1182;62672;-84
2021/09/08 00:24:29;;;;;;;;;;;;;;;;;;;;;
2021/09/08 00:28:07;;;;;;;31.10;19.70;;;;;;;13.18;67.54;99730.48;113392;1181;66469;-84
2021/09/08 00:30:37;;;;;;;32.00;19.00;;;;;;;13.10;67.65;99729.11;113240;1181;72607;-88
2021/09/08 00:34:47;;;;;;;35.70;17.00;;;;;;;13.03;67.71;99736.02;113263;1182;62630;-85
2021/09/08 00:37:18;;;;;;;26.90;18.10;;;;;;;12.95;67.93;99742.83;112985;1184;62682;-89
2021/09/08 00:40:07;;;;;;;29.50;18.30;;;;;;;12.96;68.11;99741.52;112986;1184;74766;-84
2021/09/08 00:43:15;;;;;;;24.70;17.20;;;;;;;12.98;68.25;99739.09;112966;1187;66910;-85
2021/09/08 00:46:33;;;;;;;;;;;;;;;;;;;;;
2021/09/08 00:49:42;;;;;;;37.00;20.30;;;;;;;13.05;68.01;99737.30;112968;1184;62828;-85
2021/09/08 00:53:55;;;;;;;24.70;16.90;;;;;;;12.88;67.96;99737.28;113092;1187;62925;-88
2021/09/08 00:56:51;;;;;;;;;;;;;;;;;;;;;
2021/09/08 00:59:56;;;;;;;27.30;17.50;;;;;;;12.84;68.16;99732.17;112789;1187;68042;-84
2021/09/08 01:02:56;;;;;;;31.60;16.30;;;;;;;12.84;68.15;99730.60;112760;1187;72804;-86
2021/09/08 01:06:23;;;;;;;;;;;;;;;;;;;;;
2021/09/08 01:09:36;;;;;;;29.50;17.10;;;;;;;12.79;68.16;99725.94;112909;1186;62925;-86
2021/09/08 01:12:51;;;;;;;;;;;;;;;;;;;;;
2021/09/08 01:16:09;;;;;;;26.30;17.50;;;;;;;12.56;68.33;99728.45;112801;1187;67884;-84
2021/09/08 01:20:00;;;;;;;24.00;15.70;;;;;;;12.55;68.51;99730.12;112798;1190;71103;-85
2021/09/08 01:22:40;;;;;;;;;;;;;;;;;;;;;
2021/09/08 01:26:24;;;;;;;;;;;;;;;;;;;;;
2021/09/08 01:33:05;;;;;;;;;;;;;;;;;;;;;
2021/09/08 01:36:38;;;;;;;35.90;18.20;;;;;;;12.63;68.35;99730.13;112779;1190;72311;-86
2021/09/08 01:40:59;;;;;;;35.10;18.80;;;;;;;12.59;68.46;99724.99;111531;1196;599517;-85
2021/09/08 01:44:32;;;;;;;32.60;18.50;;;;;;;12.46;68.35;99725.42;113068;1184;61111;-85
2021/09/08 01:48:10;;;;;;;32.30;18.70;;;;;;;12.35;68.68;99724.36;112516;1192;61325;-86
2021/09/08 01:51:26;;;;;;;;;;;;;;;;;;;;;
2021/09/08 01:55:05;;;;;;;32.40;16.70;;;;;;;12.36;68.80;99718.05;112512;1192;68096;-85
2021/09/08 01:58:34;;;;;;;31.00;16.00;;;;;;;12.38;68.91;99719.87;112474;1192;71651;-87
2021/09/08 02:02:47;;;;;;;28.70;16.60;;;;;;;12.46;68.92;99717.70;112047;1193;61263;-87
2021/09/08 02:05:35;;;;;;;;;;;;;;;;;;;;;
2021/09/08 02:08:42;;;;;;;31.20;17.80;;;;;;;12.53;68.73;99715.95;112034;1195;72970;-84
2021/09/08 02:12:10;;;;;;;31.60;19.70;;;;;;;12.53;68.63;99714.03;111702;1197;66738;-88
2021/09/08 02:16:15;;;;;;;33.10;19.60;;;;;;;12.46;68.74;99713.42;111675;1196;72857;-90
2021/09/08 02:19:55;;;;;;;32.90;17.80;;;;;;;12.29;68.78;99711.41;111360;1200;61856;-86
2021/09/08 02:22:41;;;;;;;30.80;17.10;;;;;;;12.24;68.95;99709.83;111344;1203;62666;-85
2021/09/08 02:26:55;;;;;;;26.90;15.60;;;;;;;12.24;69.00;99707.47;111690;1200;74219;-85
2021/09/08 02:30:19;;;;;;;;;;;;;;;;;;;;;
2021/09/08 02:34:02;;;;;;;28.80;16.30;;;;;;;12.28;69.00;99703.11;111265;1203;75037;-86
2021/09/08 02:37:29;;;;;;;;;;;;;;;;;;;;;
2021/09/08 02:41:05;;;;;;;;;;;;;;;;;;;;;
2021/09/08 02:44:42;;;;;;;30.90;18.80;;;;;;;12.25;68.97;99700.47;111235;1206;78075;-88
2021/09/08 02:47:45;;;;;;;36.50;19.20;;;;;;;12.18;68.84;99703.94;111319;1206;70158;-85
2021/09/08 02:51:32;;;;;;;32.30;18.70;;;;;;;12.08;69.03;99703.88;111298;1203;74825;-86
2021/09/08 02:54:50;;;;;;;26.80;16.70;;;;;;;12.00;68.91;99707.48;111374;1202;61955;-86
2021/09/08 02:58:15;;;;;;;;;;;;;;;;;;;;;
2021/09/08 03:01:31;;;;;;;;;;;;;;;;;;;;;
2021/09/08 03:04:34;;;;;;;;;;;;;;;;;;;;;
2021/09/08 03:12:27;;;;;;;25.70;14.40;;;;;;;11.77;68.94;99706.14;111934;1193;62039;-85
2021/09/08 03:19:24;;;;;;;27.80;17.00;;;;;;;11.72;69.14;99705.29;112370;1193;74292;-86
2021/09/08 03:22:42;;;;;;;25.70;16.50;;;;;;;11.66;69.16;99703.33;112421;1193;70760;-85
2021/09/08 03:26:32;;;;;;;25.80;15.30;;;;;;;11.61;69.34;99701.82;112407;1193;72601;-88
2021/09/08 03:29:55;;;;;;;;;;;;;;;;;;;;;
2021/09/08 03:33:54;;;;;;;;;;;;;;;;;;;;;
2021/09/08 03:37:31;;;;;;;32.70;14.30;;;;;;;11.62;69.43;99703.57;112035;1196;75504;-87
2021/09/08 03:41:17;;;;;;;;;;;;;;;;;;;;;
2021/09/08 03:44:23;;;;;;;23.10;15.00;;;;;;;11.55;69.51;99704.02;111424;1202;74818;-89
2021/09/08 03:50:48;;;;;;;21.40;14.10;;;;;;;11.54;69.72;99703.02;111652;1197;63172;-89
2021/09/08 03:53:59;;;;;;;26.50;15.80;;;;;;;11.58;69.68;99703.33;111734;1200;76018;-85
2021/09/08 04:01:04;;;;;;;;;;;;;;;;;;;;;
2021/09/08 04:04:44;;;;;;;28.80;14.40;;;;;;;11.51;70.02;99707.16;112427;1191;61869;-85
2021/09/08 04:07:57;;;;;;;25.90;14.80;;;;;;;11.60;70.16;99706.35;112020;1194;62261;-85
2021/09/08 04:11:08;;;;;;;;;;;;;;;;;;;;;
2021/09/08 04:15:07;;;;;;;;;;;;;;;;;;;;;
2021/09/08 04:18:40;;;;;;;28.10;14.20;;;;;;;11.78;69.80;99703.20;111961;1193;74029;-86
2021/09/08 04:21:46;;;;;;;40.80;15.00;;;;;;;11.78;69.85;99708.60;112741;1188;61900;-85
2021/09/08 04:25:20;;;;;;;;;;;;;;;;;;;;;
2021/09/08 04:29:16;;;;;;;54.00;18.60;;;;;;;11.67;69.69;99705.22;112797;1188;74122;-86
2021/09/08 04:31:36;;;;;;;41.80;17.80;;;;;;;11.63;70.01;99701.20;112703;1188;67813;-84
2021/09/08 04:34:17;;;;;;;;;;;;;;;;;;;;;
2021/09/08 04:37:40;;;;;;;;;;;;;;;;;;;;;
2021/09/08 04:40:47;;;;;;;46.80;15.80;;;;;;;11.56;70.37;99697.72;112722;1188;62506;-85
2021/09/08 04:44:24;;;;;;;31.50;14.90;;;;;;;11.65;70.21;99701.77;112784;1190;76515;-87
2021/09/08 04:47:43;;;;;;;;;;;;;;;11.72;70.16;99705.78;112951;1190;66581;-84
2021/09/08 04:51:23;;;;;;;;;;;;;;;;;;;;;
2021/09/08 04:54:34;;;;;;;26.00;14.90;;;;;;;11.82;70.12;99699.94;112391;1190;62042;-87
2021/09/08 04:57:33;;;;;;;;;;;;;;;;;;;;;
2021/09/08 05:00:41;;;;;;;29.00;18.90;;;;;;;11.94;70.09;99698.11;112760;1190;75458;-86
2021/09/08 05:04:15;;;;;;;33.20;22.50;;;;;;;11.96;70.19;99702.63;112749;1190;66541;-84
2021/09/08 05:07:13;;;;;;;27.40;18.30;;;;;;;11.94;70.11;99704.51;112701;1189;72623;-88
2021/09/08 05:10:23;;;;;;;;;;;;;;;;;;;;;
2021/09/08 05:13:03;;;;;;;30.40;17.00;;;;;;;12.02;70.03;99707.88;112747;1190;61991;-86
2021/09/08 05:16:13;;;;;;;30.30;18.00;;;;;;;12.09;70.22;99705.28;112537;1190;74562;-84
2021/09/08 05:18:56;;;;;;;;;;;;;;;;;;;;;
2021/09/08 05:22:10;;;;;;;33.40;17.70;;;;;;;12.28;70.12;99706.14;112808;1188;72814;-85
2021/09/08 05:25:01;;;;;;;27.40;16.50;;;;;;;12.36;70.04;99709.49;112840;1185;61949;-84
2021/09/08 05:27:56;;;;;;;31.70;18.70;;;;;;;12.50;70.22;99707.30;113196;1180;61833;-83
2021/09/08 05:30:38;;;;;;;38.80;18.70;;;;;;;12.62;70.26;99707.83;113287;1181;75232;-84
2021/09/08 05:33:37;;;;;;;37.70;19.70;;;;;;;12.75;70.37;99708.04;113387;1181;65762;-85
2021/09/08 05:36:17;;;;;;;;;;;;;;;;;;;;;
2021/09/08 05:38:50;;;;;;;42.30;23.90;;;;;;;12.95;70.32;99708.31;113366;1180;61902;-83
2021/09/08 05:41:42;;;;;;;;;;;;;;;;;;;;;
2021/09/08 05:44:25;;;;;;;60.20;21.70;;;;;;;13.19;70.64;99702.85;113606;1180;75488;-85
2021/09/08 05:47:05;;;;;;;;;;;;;;;13.34;70.73;99705.06;113574;1180;67956;-86
2021/09/08 05:49:53;;;;;;;50.80;24.10;;;;;;;13.50;70.78;99705.64;113322;1180;72399;-84
2021/09/08 05:53:01;;;;;;;69.60;25.50;;;;;;;13.67;70.76;99703.34;113316;1181;61860;-88
2021/09/08 05:56:02;;;;;;;;;;;;;;;;;;;;;
2021/09/08 05:59:12;;;;;;;76.40;25.70;;;;;;;14.12;70.88;99697.94;113626;1180;75428;-83
2021/09/08 06:02:00;;;;;;;71.10;23.20;;;;;;;14.35;71.00;99693.30;113432;1180;67899;-86
2021/09/08 06:05:11;;;;;;;46.40;23.20;;;;;;;14.56;71.00;99692.38;113644;1182;72626;-84
2021/09/08 06:08:30;;;;;;;;;;;;;;;;;;;;;
2021/09/08 06:11:29;;;;;;;33.70;20.70;;;;;;;15.06;70.85;99688.38;113447;1180;61879;-91
2021/09/08 06:14:43;;;;;;;33.70;20.20;;;;;;;15.30;70.77;99684.29;113517;1180;75824;-85
2021/09/08 06:17:41;;;;;;;;;;;;;;;;;;;;;
2021/09/08 06:20:48;;;;;;;30.80;18.90;;;;;;;15.74;70.72;99683.59;113331;1180;71234;-84
2021/09/08 06:23:52;;;;;;;28.50;16.80;;;;;;;15.91;70.59;99678.02;113408;1180;62024;-86
2021/09/08 06:27:02;;;;;;;;;;;;;;;;;;;;;
2021/09/08 06:30:36;;;;;;;;;;;;;;;;;;;;;
2021/09/08 06:33:28;;;;;;;;;;;;;;;;;;;;;
2021/09/08 06:36:38;;;;;;;34.30;15.30;;;;;;;16.08;69.96;99683.37;113543;1180;72596;-87
2021/09/08 06:39:52;;;;;;;25.30;15.50;;;;;;;16.06;69.99;99681.80;113562;1180;61917;-84
2021/09/08 06:43:32;;;;;;;21.40;15.20;;;;;;;16.04;70.02;99683.90;113703;1180;61900;-89
2021/09/08 06:46:28;;;;;;;;;;;;;;;;;;;;;
2021/09/08 06:49:38;;;;;;;;;;;;;;;;;;;;;
2021/09/08 06:53:10;;;;;;;;;;;;;;;;;;;;;
2021/09/08 06:55:58;;;;;;;33.10;20.40;;;;;;;16.17;70.18;99686.06;113524;1179;61914;-88
2021/09/08 06:58:57;;;;;;;;;;;;;;;;;;;;;
2021/09/08 07:02:05;;;;;;;;;;;;;;;;;;;;;
2021/09/08 07:05:47;;;;;;;;;;;;;;;;;;;;;
2021/09/08 07:12:14;;;;;;;31.20;19.60;;;;;;;16.39;70.27;99676.60;113709;1181;62666;-86
2021/09/08 07:15:32;;;;;;;29.00;18.80;;;;;;;16.53;70.34;99676.77;113079;1184;61603;-85
2021/09/08 07:18:37;;;;;;;30.70;19.40;;;;;;;16.78;70.26;99680.73;113119;1184;76200;-84
2021/09/08 07:22:08;;;;;;;;;;;;;;;;;;;;;
2021/09/08 07:24:43;;;;;;;31.70;15.70;;;;;;;17.54;70.10;99672.45;113318;1182;71478;-84
2021/09/08 07:27:37;;;;;;;29.30;15.10;;;;;;;17.91;70.13;99672.40;113022;1184;62747;-86
2021/09/08 07:30:19;;;;;;;18.60;12.30;;;;;;;18.22;70.02;99671.64;113287;1183;62644;-88
2021/09/08 07:33:29;;;;;;;16.90;9.90;;;;;;;18.52;69.66;99670.05;113634;1183;75931;-84
2021/09/08 07:36:46;;;;;;;;;;;;;;;;;;;;;
2021/09/08 07:40:32;;;;;;;;;;;;;;;;;;;;;
2021/09/08 07:43:52;;;;;;;20.90;10.90;;;;;;;19.53;69.44;99665.58;113233;1189;62671;-86
2021/09/08 07:47:08;;;;;;;16.50;11.60;;;;;;;19.84;69.32;99666.27;112833;1187;62727;-92
2021/09/08 07:50:13;;;;;;;17.20;10.60;;;;;;;20.11;69.09;99671.84;112969;1187;76921;-86
2021/09/08 07:56:50;;;;;;;;;;;;;;;;;;;;;
2021/09/08 08:00:57;;;;;;;21.80;11.30;;;;;;;20.46;68.91;99671.84;112950;1187;64309;-89
2021/09/08 08:03:33;;;;;;;16.30;11.10;;;;;;;20.68;68.91;99672.70;113027;1187;62643;-89
2021/09/08 08:06:58;;;;;;;;;;;;;;;;;;;;;
2021/09/08 08:10:13;;;;;;;19.40;11.90;;;;;;;21.20;68.82;99672.05;112897;1186;67545;-87
2021/09/08 08:13:52;;;;;;;17.20;11.50;;;;;;;21.47;68.68;99670.98;112796;1187;72442;-86
2021/09/08 08:16:45;;;;;;;18.20;12.30;;;;;;;21.74;68.69;99669.69;112837;1187;62608;-88
2021/09/08 08:20:11;;;;;;;;;;;;;;;;;;;;;
2021/09/08 08:24:25;;;;;;;15.80;11.00;;;;;;;22.22;68.48;99667.66;113673;1181;79505;-87
2021/09/08 08:27:21;;;;;;;;;;;;;;;;;;;;;
2021/09/08 08:34:17;;;;;;;;;;;;;;;;;;;;;
2021/09/08 08:37:53;;;;;;;;;;;;;;;;;;;;;
2021/09/08 08:41:26;;;;;;;11.80;8.40;;;;;;;23.36;67.45;99664.70;113266;1183;76268;-87
2021/09/08 08:44:15;;;;;;;9.80;8.20;;;;;;;23.52;67.13;99662.64;113319;1182;67593;-86
2021/09/08 08:47:22;;;;;;;9.90;7.40;;;;;;;23.60;66.84;99659.90;113253;1183;73668;-89
2021/09/08 08:50:25;;;;;;;9.10;7.30;;;;;;;23.70;66.94;99661.48;113023;1182;62674;-90
2021/09/08 08:53:41;;;;;;;13.20;7.80;;;;;;;23.80;66.47;99661.41;113157;1184;62704;-89
2021/09/08 08:56:42;;;;;;;16.20;6.90;;;;;;;23.91;66.40;99662.84;113089;1184;75919;-88
2021/09/08 08:59:21;;;;;;;9.50;6.90;;;;;;;23.98;65.86;99658.55;113233;1184;67930;-89
2021/09/08 09:02:45;;;;;;;10.90;7.00;;;;;;;24.03;65.78;99658.30;113142;1184;72634;-89
2021/09/08 09:06:55;;;;;;;12.10;7.10;;;;;;;24.12;65.59;99661.61;113288;1182;62696;-90
2021/09/08 09:09:43;;;;;;;14.10;6.70;;;;;;;24.22;65.57;99661.41;113234;1183;63310;-91
2021/09/08 09:13:50;;;;;;;9.80;6.90;;;;;;;24.38;65.38;99666.03;113171;1183;76187;-93
2021/09/08 09:17:20;;;;;;;;;;;;;;;;;;;;;
2021/09/08 09:21:25;;;;;;;12.30;6.70;;;;;;;24.63;64.43;99661.27;112329;1193;71602;-96
2021/09/08 09:24:53;;;;;;;;;;;;;;;;;;;;;
2021/09/08 09:28:56;;;;;;;9.40;6.20;;;;;;;24.72;64.16;99653.36;111441;1200;63061;-91
2021/09/08 09:32:23;;;;;;;;;;;;;;;;;;;;;
2021/09/08 09:36:20;;;;;;;11.00;6.30;;;;;;;25.26;63.79;99651.61;111423;1203;69925;-89
2021/09/08 09:44:28;;;;;;;10.40;6.40;;;;;;;25.37;63.12;99638.49;111478;1199;600660;-93
2021/09/08 09:48:15;;;;;;;8.40;6.50;;;;;;;25.48;62.87;99636.36;112721;1190;61111;-94
2021/09/08 09:51:16;;;;;;;;;;;;;;;;;;;;;
2021/09/08 09:54:33;;;;;;;;;;;;;;;;;;;;;
2021/09/08 09:57:31;;;;;;;;;;;;;;;;;;;;;
2021/09/08 10:00:55;;;;;;;;;;;;;;;;;;;;;
2021/09/08 10:08:58;;;;;;;10.20;5.90;;;;;;;25.97;61.37;99610.27;112871;1187;61251;-89
2021/09/08 10:12:17;;;;;;;;;;;;;;;;;;;;;
2021/09/08 10:15:28;;;;;;;;;;;;;;;;;;;;;
2021/09/08 10:18:47;;;;;;;11.30;5.60;;;;;;;26.15;60.16;99606.71;112990;1186;66630;-88
2021/09/08 10:26:01;;;;;;;;;;;;;;;;;;;;;
2021/09/08 10:29:40;;;;;;;11.40;6.10;;;;;;;26.26;59.46;99595.40;111958;1195;61237;-96
2021/09/08 10:32:51;;;;;;;;;;;;;;;;;;;;;
2021/09/08 10:40:15;;;;;;;;;;;;;;;;;;;;;
2021/09/08 10:44:31;;;;;;;11.20;5.50;;;;;;;26.43;58.69;99580.25;112352;1195;62070;-88
2021/09/08 10:47:54;;;;;;;5.80;5.10;;;;;;;26.50;58.28;99575.59;112169;1196;61886;-89
2021/09/08 10:51:30;;;;;;;13.40;6.00;;;;;;;26.69;58.37;99571.70;112035;1200;78112;-87
2021/09/08 10:54:30;;;;;;;16.80;6.10;;;;;;;26.76;57.61;99571.52;111487;1206;68931;-89
2021/09/08 10:58:47;;;;;;;14.60;6.10;;;;;;;26.82;57.67;99568.77;111354;1206;74905;-87
2021/09/08 11:06:39;;;;;;;;;;;;;;;;;;;;;
2021/09/08 11:10:18;;;;;;;;;;;;;;;;;;;;;
2021/09/08 11:14:15;;;;;;;10.30;5.90;;;;;;;27.13;56.86;99554.05;111855;1200;61236;-87
2021/09/08 11:17:41;;;;;;;12.80;7.00;;;;;;;27.23;56.27;99549.42;111804;1200;77272;-88
2021/09/08 11:20:57;;;;;;;;;;;;;;;;;;;;;
2021/09/08 11:24:43;;;;;;;14.80;5.90;;;;;;;26.98;55.99;99547.61;111506;1203;75028;-89
2021/09/08 11:27:26;;;;;;;;;;;;;;;;;;;;;
2021/09/08 11:34:40;;;;;;;;;;;;;;;;;;;;;
2021/09/08 11:37:42;;;;;;;8.00;5.30;;;;;;;27.02;55.35;99542.64;110831;1209;70135;-88
2021/09/08 11:41:10;;;;;;;5.60;5.10;;;;;;;26.87;55.14;99545.91;110912;1209;72674;-88
2021/09/08 11:44:43;;;;;;;8.60;5.60;;;;;;;26.47;54.79;99544.46;110853;1209;62139;-87
2021/09/08 11:48:23;;;;;;;;;;;;;;;;;;;;;
2021/09/08 11:51:59;;;;;;;5.70;5.00;;;;;;;25.92;55.10;99533.81;111286;1205;77238;-87
2021/09/08 11:55:57;;;;;;;10.20;5.60;;;;;;;26.24;55.26;99530.01;111271;1205;68950;-92
2021/09/08 11:59:46;;;;;;;6.30;5.60;;;;;;;26.45;54.62;99532.95;111060;1208;73974;-87
2021/09/08 12:02:42;;;;;;;;;;;;;;;26.68;54.27;99531.95;110725;1209;61981;-89
2021/09/08 12:06:07;;;;;;;9.10;5.50;;;;;;;26.74;54.04;99520.21;110718;1209;62200;-90
2021/09/08 12:09:48;;;;;;;;;;;;;;;;;;;;;
2021/09/08 12:13:22;;;;;;;;;;;;;;;;;;;;;
2021/09/08 12:24:02;;;;;;;8.20;4.80;;;;;;;26.51;53.38;99516.98;111001;1209;61972;-90
2021/09/08 12:28:29;;;;;;;5.90;5.30;;;;;;;26.63;53.06;99515.40;111168;1206;77045;-89
2021/09/08 12:31:56;;;;;;;8.80;5.40;;;;;;;26.68;52.82;99510.88;110773;1209;69774;-92
2021/09/08 12:35:20;;;;;;;;;;;;;;;;;;;;;
2021/09/08 12:38:49;;;;;;;10.20;5.40;;;;;;;26.52;52.34;99509.36;110936;1206;61888;-90
2021/09/08 12:42:19;;;;;;;8.40;6.40;;;;;;;26.54;52.44;99499.95;110955;1206;61995;-90
2021/09/08 12:46:04;;;;;;;;;;;;;;;;;;;;;
2021/09/08 12:53:48;;;;;;;7.00;5.60;;;;;;;26.58;51.99;99485.20;113207;1203;71100;-88
2021/09/08 12:57:34;;;;;;;;;;;;;;;;;;;;;
2021/09/08 13:00:36;;;;;;;;;;;;;;;;;;;;;
2021/09/08 13:03:32;;;;;;;43.90;26.10;;;;;;;26.54;52.18;99463.95;111477;1202;76822;-87
2021/09/08 13:06:11;;;;;;;28.70;17.30;;;;;;;26.74;52.00;99458.46;111800;1200;69122;-88
2021/09/08 13:09:06;;;;;;;15.60;9.60;;;;;;;26.88;51.72;99458.73;112009;1193;75149;-90
2021/09/08 13:12:41;;;;;;;7.10;5.50;;;;;;;26.90;51.23;99453.80;112091;1196;62119;-90
2021/09/08 13:15:34;;;;;;;13.50;6.90;;;;;;;26.87;51.36;99450.47;112118;1196;62198;-86
2021/09/08 13:18:46;;;;;;;;;;;;;;;;;;;;;
2021/09/08 13:22:30;;;;;;;14.70;6.40;;;;;;;26.82;50.96;99444.50;112193;1190;70034;-92
2021/09/08 13:25:53;;;;;;;;;;;;;;;;;;;;;
2021/09/08 13:28:35;;;;;;;7.10;5.40;;;;;;;26.26;50.68;99432.85;112613;1190;62411;-93
2021/09/08 13:31:31;;;;;;;7.60;5.40;;;;;;;26.25;50.85;99430.45;112434;1192;62281;-87
2021/09/08 13:34:32;;;;;;;13.60;6.80;;;;;;;26.20;50.84;99427.57;112949;1190;76204;-87
2021/09/08 13:37:56;;;;;;;7.70;5.50;;;;;;;25.99;50.68;99427.94;113213;1187;66586;-88
2021/09/08 13:41:28;;;;;;;6.20;5.40;;;;;;;25.79;50.62;99422.17;112996;1190;71910;-88
2021/09/08 13:44:39;;;;;;;;;;;;;;;;;;;;;
2021/09/08 13:47:25;;;;;;;9.30;7.40;;;;;;;25.87;50.35;99409.46;112327;1193;61983;-88
2021/09/08 13:50:46;;;;;;;9.40;7.40;;;;;;;25.93;50.43;99408.37;112062;1193;76280;-88
2021/09/08 13:53:46;;;;;;;8.00;6.40;;;;;;;26.00;50.48;99403.95;111877;1196;66578;-92
2021/09/08 13:57:08;;;;;;;7.40;5.40;;;;;;;26.02;50.07;99398.59;111858;1197;72659;-87
2021/09/08 14:00:36;;;;;;;6.70;6.00;;;;;;;26.04;50.08;99399.52;111935;1197;61869;-88
2021/09/08 14:03:49;;;;;;;7.80;5.20;;;;;;;25.93;49.52;99396.00;111900;1196;62076;-88
2021/09/08 14:07:04;;;;;;;;;;;;;;;;;;;;;
2021/09/08 14:10:45;;;;;;;;;;;;;;;;;;;;;
2021/09/08 14:14:37;;;;;;;8.00;5.50;;;;;;;25.64;49.54;99387.66;111927;1196;72813;-92
2021/09/08 14:17:57;;;;;;;9.70;6.40;;;;;;;25.68;49.52;99377.91;111737;1200;62067;-88
2021/09/08 14:20:38;;;;;;;;;;;;;;;;;;;;;
2021/09/08 14:23:53;;;;;;;7.10;6.00;;;;;;;25.80;49.34;99379.92;112315;1193;74232;-89
2021/09/08 14:26:48;;;;;;;;;;;;;;;;;;;;;
2021/09/08 14:30:20;;;;;;;;;;;;;;;;;;;;;
2021/09/08 14:33:33;;;;;;;;;;;;;;;;;;;;;
2021/09/08 14:36:50;;;;;;;5.90;5.00;;;;;;;25.58;48.36;99376.12;112436;1192;61965;-88
2021/09/08 14:40:54;;;;;;;6.30;4.90;;;;;;;25.41;48.32;99366.02;112452;1193;74372;-87
2021/09/08 14:43:46;;;;;;;6.70;4.70;;;;;;;25.28;48.31;99367.34;112495;1192;67679;-87
2021/09/08 14:46:30;;;;;;;6.00;4.80;;;;;;;25.16;48.13;99366.98;112560;1193;72755;-90
2021/09/08 14:49:21;;;;;;;6.80;5.20;;;;;;;25.02;48.03;99366.05;112586;1191;61905;-87
2021/09/08 14:52:22;;;;;;;;;;;;;;;;;;;;;
2021/09/08 14:55:51;;;;;;;;;;;;;;;;;;;;;
2021/09/08 14:59:17;;;;;;;5.10;4.60;;;;;;;24.65;47.79;99355.09;112808;1188;68775;-87
2021/09/08 15:02:37;;;;;;;;;;;;;;;;;;;;;
2021/09/08 15:05:16;;;;;;;7.30;4.50;;;;;;;24.50;47.81;99354.33;112637;1190;61871;-88
2021/09/08 15:08:24;;;;;;;;;;;;;;;;;;;;;
2021/09/08 15:11:28;;;;;;;7.30;5.30;;;;;;;24.39;47.72;99348.48;112756;1190;75880;-86
2021/09/08 15:14:03;;;;;;;8.40;4.90;;;;;;;24.31;47.46;99348.91;112691;1190;65693;-86
2021/09/08 15:17:00;;;;;;;6.60;5.20;;;;;;;24.25;47.65;99347.42;112557;1190;72603;-86
2021/09/08 15:20:14;;;;;;;5.80;4.80;;;;;;;24.22;47.64;99354.42;112433;1190;62118;-93
2021/09/08 15:23:16;;;;;;;5.80;5.10;;;;;;;24.18;47.66;99351.65;112397;1190;62129;-87
2021/09/08 15:26:20;;;;;;;6.70;5.30;;;;;;;24.13;47.47;99347.72;112688;1190;73795;-88
2021/09/08 15:29:13;;;;;;;6.10;5.20;;;;;;;24.09;47.44;99343.34;112487;1190;66765;-89
2021/09/08 15:32:10;;;;;;;7.90;5.50;;;;;;;24.05;47.52;99341.79;112339;1190;73437;-87
2021/09/08 15:35:01;;;;;;;7.60;5.40;;;;;;;23.99;47.49;99339.54;112666;1190;61836;-88
2021/09/08 15:38:10;;;;;;;13.30;5.10;;;;;;;23.95;47.62;99340.10;113053;1184;61901;-86
2021/09/08 15:41:14;;;;;;;9.90;5.80;;;;;;;23.92;47.44;99335.95;112961;1187;75536;-90
2021/09/08 15:44:06;;;;;;;;;;;;;;;;;;;;;
2021/09/08 15:47:12;;;;;;;;;;;;;;;;;;;;;
2021/09/08 15:50:45;;;;;;;6.30;5.60;;;;;;;23.96;47.68;99330.34;113076;1184;61903;-86
2021/09/08 15:53:46;;;;;;;8.30;5.60;;;;;;;24.03;47.62;99329.71;113014;1187;61834;-86
2021/09/08 15:56:40;;;;;;;6.40;5.70;;;;;;;24.12;47.49;99326.94;113127;1186;75382;-86
2021/09/08 16:00:01;;;;;;;9.20;6.00;;;;;;;24.36;47.28;99322.11;113844;1186;67906;-86
2021/09/08 16:02:50;;;;;;;9.70;5.80;;;;;;;24.83;47.15;99322.86;113166;1187;71314;-88
2021/09/08 16:08:43;;;;;;;9.10;5.60;;;;;;;24.81;47.11;99319.86;113218;1187;62002;-87
2021/09/08 16:12:00;;;;;;;6.30;5.10;;;;;;;24.52;47.29;99320.45;113163;1187;75463;-86
2021/09/08 16:14:40;;;;;;;9.10;6.10;;;;;;;24.20;47.26;99315.35;112967;1187;67170;-88
2021/09/08 16:17:18;;;;;;;7.10;5.70;;;;;;;23.96;47.24;99319.23;112954;1187;75993;-87
2021/09/08 16:20:08;;;;;;;11.80;6.20;;;;;;;23.76;47.42;99319.37;112978;1187;63080;-86
2021/09/08 16:22:42;;;;;;;8.80;6.50;;;;;;;23.58;47.56;99316.49;112949;1187;61893;-87
2021/09/08 16:26:11;;;;;;;;;;;;;;;;;;;;;
2021/09/08 16:30:07;;;;;;;10.40;7.00;;;;;;;23.25;47.52;99315.23;113297;1187;66598;-89
2021/09/08 16:33:00;;;;;;;6.90;5.70;;;;;;;23.06;47.98;99309.15;113013;1187;72634;-86
2021/09/08 16:36:34;;;;;;;;;;;;;;;;;;;;;
2021/09/08 16:39:25;;;;;;;6.40;5.80;;;;;;;22.72;48.21;99300.19;113449;1184;62807;-88
2021/09/08 16:42:37;;;;;;;12.20;6.20;;;;;;;22.58;48.39;99299.31;113436;1187;76111;-87
2021/09/08 16:46:12;;;;;;;9.30;5.80;;;;;;;22.44;48.30;99300.80;113651;1183;66460;-87
2021/09/08 16:49:06;;;;;;;11.80;6.20;;;;;;;22.29;48.47;99300.33;113168;1184;72601;-93
2021/09/08 16:52:38;;;;;;;11.50;5.70;;;;;;;22.18;48.33;99302.23;113340;1184;62746;-87
2021/09/08 16:55:48;;;;;;;9.30;6.40;;;;;;;22.05;48.60;99301.66;113214;1184;62756;-95
2021/09/08 16:59:18;;;;;;;;;;;;;;;;;;;;;
2021/09/08 17:05:45;;;;;;;6.80;6.10;;;;;;;21.62;48.67;99299.36;113279;1180;74675;-88
2021/09/08 17:08:43;;;;;;;12.20;7.50;;;;;;;21.49;48.87;99293.29;113201;1184;62703;-87
2021/09/08 17:12:11;;;;;;;10.30;6.80;;;;;;;21.39;48.94;99294.27;113357;1184;62843;-88
2021/09/08 17:15:33;;;;;;;;;;;;;;;;;;;;;
2021/09/08 17:18:12;;;;;;;12.40;7.00;;;;;;;21.13;49.26;99300.53;113427;1181;67321;-87
2021/09/08 17:21:19;;;;;;;;;;;;;;;21.01;49.29;99302.59;113283;1183;72428;-89
2021/09/08 17:24:07;;;;;;;11.90;6.40;;;;;;;20.86;49.39;99301.13;113196;1182;62765;-88
2021/09/08 17:27:05;;;;;;;13.30;6.60;;;;;;;20.75;49.45;99302.60;113431;1181;62769;-90
2021/09/08 17:30:28;;;;;;;;;;;;;;;;;;;;;
2021/09/08 17:33:57;;;;;;;;;;;;;;;;;;;;;
2021/09/08 17:37:08;;;;;;;13.70;7.30;;;;;;;20.33;49.72;99303.69;113061;1185;72615;-91
2021/09/08 17:41:23;;;;;;;11.20;7.10;;;;;;;20.18;49.84;99307.17;113016;1185;62722;-86
2021/09/08 17:44:05;;;;;;;13.60;7.50;;;;;;;20.04;49.94;99308.23;112947;1186;63199;-86
2021/09/08 17:47:03;;;;;;;17.30;8.20;;;;;;;19.90;50.03;99311.30;113124;1185;76237;-88
2021/09/08 17:50:14;;;;;;;;;;;;;;;;;;;;;
2021/09/08 17:53:46;;;;;;;10.70;7.40;;;;;;;19.71;50.26;99319.69;113037;1185;72630;-87
2021/09/08 17:57:21;;;;;;;13.10;9.00;;;;;;;19.57;50.32;99322.38;113085;1185;63010;-87
2021/09/08 18:00:46;;;;;;;;;;;;;;;;;;;;;
2021/09/08 18:04:24;;;;;;;;;;;;;;;;;;;;;
2021/09/08 18:07:29;;;;;;;19.20;12.10;;;;;;;19.30;50.71;99330.49;113036;1187;67966;-86
2021/09/08 18:10:37;;;;;;;;;;;;;;;;;;;;;
2021/09/08 18:13:54;;;;;;;19.40;13.20;;;;;;;19.14;50.76;99335.14;112974;1184;62668;-86
2021/09/08 18:16:59;;;;;;;18.30;12.90;;;;;;;19.05;50.89;99334.16;113513;1184;62764;-87
2021/09/08 18:19:48;;;;;;;19.20;10.90;;;;;;;18.97;50.99;99337.13;112945;1184;75173;-87
2021/09/08 18:22:40;;;;;;;;;;;;;;;;;;;;;
2021/09/08 18:25:34;;;;;;;15.40;9.50;;;;;;;18.83;51.12;99335.87;113351;1183;71488;-88
2021/09/08 18:28:57;;;;;;;12.70;8.90;;;;;;;18.75;51.37;99338.17;113445;1184;62674;-89
2021/09/08 18:32:02;;;;;;;11.60;8.40;;;;;;;18.65;51.35;99338.70;113188;1184;62878;-87
2021/09/08 18:35:04;;;;;;;;;;;;;;;;;;;;;
2021/09/08 18:38:40;;;;;;;;;;;;;;;;;;;;;
2021/09/08 18:41:23;;;;;;;17.30;10.80;;;;;;;18.38;51.56;99336.23;112955;1184;75377;-88
2021/09/08 18:44:47;;;;;;;;;;;;;;;;;;;;;
2021/09/08 18:47:21;;;;;;;15.80;9.70;;;;;;;18.19;51.62;99334.38;113002;1184;62689;-90
2021/09/08 18:51:02;;;;;;;12.30;9.40;;;;;;;18.08;51.75;99338.48;112956;1184;76223;-87
2021/09/08 18:54:12;;;;;;;;;;;;;;;;;;;;;
2021/09/08 18:56:58;;;;;;;18.80;10.60;;;;;;;17.92;52.12;99340.24;113567;1181;72778;-86
2021/09/08 18:59:59;;;;;;;13.60;9.00;;;;;;;17.89;52.28;99339.16;113541;1181;62676;-87
2021/09/08 19:03:13;;;;;;;;;;;;;;;;;;;;;
2021/09/08 19:06:37;;;;;;;;;;;;;;;;;;;;;
2021/09/08 19:09:36;;;;;;;13.80;8.40;;;;;;;17.72;52.41;99340.45;113550;1182;67239;-89
2021/09/08 19:12:29;;;;;;;15.30;8.00;;;;;;;17.62;52.36;99339.19;113469;1182;72570;-86
2021/09/08 19:15:51;;;;;;;13.40;8.50;;;;;;;17.56;52.36;99331.83;113545;1180;62685;-87
2021/09/08 19:19:39;;;;;;;14.90;7.60;;;;;;;17.50;52.48;99333.19;113248;1181;62820;-89
2021/09/08 19:22:47;;;;;;;8.80;7.30;;;;;;;17.45;52.41;99332.02;113767;1184;76191;-87